Time;durP1;ratioP1;P1;durP2;ratioP2;P2;SDS_P1;SDS_P2;PMS_P1;PMS_P2;Temp;Humidity;BMP_temperature;BMP_pressure;BME280_temperature;BME280_humidity;BME280_pressure;Samples;Min_cycle;Max_cycle;Signal;HPM_P1;HPM_P2
2023/10/28 00:00:17;;;;;;;;;;;;;;;8.28;100.00;99527.78;5078715;28;20380;-75
2023/10/28 00:02:42;;;;;;;;;;;;;;;8.29;100.00;99524.25;5065474;28;19926;-75
2023/10/28 00:05:07;;;;;;;;;;;;;;;8.31;100.00;99525.06;5078413;28;20279;-75
2023/10/28 00:07:33;;;;;;;;;;;;;;;8.34;100.00;99532.75;5081298;28;19916;-75
2023/10/28 00:09:58;;;;;;;;;;;;;;;8.35;100.00;99529.25;5078054;28;19924;-74
2023/10/28 00:12:24;;;;;;;;;;;;;;;8.37;100.00;99530.03;5078288;28;20459;-75
2023/10/28 00:14:49;;;;;;;;;;;;;;;8.40;100.00;99535.13;5074182;28;19928;-74
2023/10/28 00:17:15;;;;;;;;;;;;;;;8.42;100.00;99530.75;5081155;28;20295;-75
2023/10/28 00:19:41;;;;;;;;;;;;;;;8.44;100.00;99535.00;5070958;28;20372;-75
2023/10/28 00:22:07;;;;;;;;;;;;;;;8.47;100.00;99531.44;5082014;28;20392;-75
2023/10/28 00:24:32;;;;;;;;;;;;;;;8.49;100.00;99527.03;5072720;28;20003;-75
2023/10/28 00:26:57;;;;;;;;;;;;;;;8.50;100.00;99525.28;5080966;28;20011;-75
2023/10/28 00:29:23;;;;;;;;;;;;;;;8.52;100.00;99526.06;5076043;28;19921;-74
2023/10/28 00:31:50;;;;;;;;;;;;;;;8.52;100.00;99526.06;5087718;28;19928;-75
2023/10/28 00:34:15;;;;;;;;;;;;;;;8.53;100.00;99522.56;5078854;28;19920;-75
2023/10/28 00:36:41;;;;;;;;;;;;;;;8.55;100.00;99523.38;5086556;28;19920;-74
2023/10/28 00:39:06;;;;;;;;;;;;;;;8.57;100.00;99522.41;5074842;28;19920;-75
2023/10/28 00:41:32;;;;;;;;;;;;;;;8.60;100.00;99530.09;5084650;28;19920;-75
2023/10/28 00:43:57;;;;;;;;;;;;;;;8.62;100.00;99532.63;5075482;28;19967;-75
2023/10/28 00:46:22;;;;;;;;;;;;;;;8.65;100.00;99530.78;5082147;28;20019;-75
2023/10/28 00:48:48;;;;;;;;;;;;;;;8.67;100.00;99531.56;5082679;28;20362;-75
2023/10/28 00:51:13;;;;;;;;;;;;;;;8.72;100.00;99533.16;5083309;28;19924;-74
2023/10/28 00:53:39;;;;;;;;;;;;;;;8.75;100.00;99530.44;5080390;28;20416;-74
2023/10/28 00:56:04;;;;;;;;;;;;;;;8.76;100.00;99529.53;5080294;28;20442;-75
2023/10/28 00:58:30;;;;;;;;;;;;;;;8.78;100.00;99532.94;5081850;28;20011;-74
2023/10/28 01:00:55;;;;;;;;;;;;;;;8.79;100.00;99529.41;5075704;28;20013;-75
2023/10/28 01:03:20;;;;;;;;;;;;;;;8.80;100.00;99525.94;5071591;28;20007;-75
2023/10/28 01:05:45;;;;;;;;;;;;;;;8.80;100.00;99531.13;5083357;28;19920;-75
2023/10/28 01:08:10;;;;;;;;;;;;;;;8.80;100.00;99528.53;5082269;28;20377;-75
2023/10/28 01:10:37;;;;;;;;;;;;;;;8.80;100.00;99531.13;5072952;28;20023;-74
2023/10/28 01:13:06;;;;;;;;;;;;;;;8.80;100.00;99533.72;5077957;28;19928;-75
2023/10/28 01:15:31;;;;;;;;;;;;;;;8.79;100.00;99526.81;5077764;28;20023;-75
2023/10/28 01:17:59;;;;;;;;;;;;;;;8.80;100.00;99533.72;5067663;28;20000;-75
2023/10/28 01:20:24;;;;;;;;;;;;;;;8.80;100.00;99533.72;5077084;28;20019;-75
2023/10/28 01:22:49;;;;;;;;;;;;;;;8.80;100.00;99525.94;5080093;28;19952;-75
2023/10/28 01:25:15;;;;;;;;;;;;;;;8.82;100.00;99534.50;5075561;28;19920;-75
2023/10/28 01:27:43;;;;;;;;;;;;;;;8.82;100.00;99537.09;5076443;28;19955;-75
2023/10/28 01:30:13;;;;;;;;;;;;;;;8.81;100.00;99525.84;5082746;28;20418;-75
2023/10/28 01:32:38;;;;;;;;;;;;;;;8.82;100.00;99529.31;5084360;28;19928;-75
2023/10/28 01:35:04;;;;;;;;;;;;;;;8.80;100.00;99526.78;5071167;28;19920;-75
2023/10/28 01:37:30;;;;;;;;;;;;;;;8.81;100.00;99523.25;5074843;28;19925;-75
2023/10/28 01:39:55;;;;;;;;;;;;;;;8.80;100.00;99526.78;5071956;28;19921;-75
2023/10/28 01:42:21;;;;;;;;;;;;;;;8.80;100.00;99531.13;5081931;28;19920;-75
2023/10/28 01:44:47;;;;;;;;;;;;;;;8.80;100.00;99533.72;5062804;28;19950;-75
2023/10/28 01:47:13;;;;;;;;;;;;;;;8.81;100.00;99538.00;5083647;28;20014;-75
2023/10/28 01:49:38;;;;;;;;;;;;;;;8.80;100.00;99537.16;5079898;28;19920;-75
2023/10/28 01:52:06;;;;;;;;;;;;;;;8.78;100.00;99523.38;5078709;28;20416;-75
2023/10/28 01:54:33;;;;;;;;;;;;;;;8.78;100.00;99522.53;5069336;28;19920;-75
2023/10/28 01:56:59;;;;;;;;;;;;;;;8.77;100.00;99523.44;5089830;28;20002;-75
2023/10/28 01:59:24;;;;;;;;;;;;;;;8.76;100.00;99532.97;5085019;28;19931;-75
2023/10/28 02:01:49;;;;;;;;;;;;;;;8.76;100.00;99524.31;5078429;28;20356;-74
2023/10/28 02:04:15;;;;;;;;;;;;;;;8.75;100.00;99528.69;5087250;28;19920;-75
2023/10/28 02:06:40;;;;;;;;;;;;;;;8.75;100.00;99523.47;5083841;28;19924;-75
2023/10/28 02:09:05;;;;;;;;;;;;;;;8.74;100.00;99521.81;5079979;28;19927;-75
2023/10/28 02:11:33;;;;;;;;;;;;;;;8.74;100.00;99510.56;5077545;28;19928;-75
2023/10/28 02:13:59;;;;;;;;;;;;;;;8.74;100.00;99515.75;5078047;28;20285;-75
2023/10/28 02:16:24;;;;;;;;;;;;;;;8.73;100.00;99519.25;5080986;28;19920;-75
2023/10/28 02:18:50;;;;;;;;;;;;;;;8.72;100.00;99513.19;5085535;28;19920;-75
2023/10/28 02:21:16;;;;;;;;;;;;;;;8.71;100.00;99516.72;5081196;28;19920;-75
2023/10/28 02:23:41;;;;;;;;;;;;;;;8.72;100.00;99512.34;5077423;28;20289;-75
2023/10/28 02:26:07;;;;;;;;;;;;;;;8.71;100.00;99521.06;5083856;28;19927;-75
2023/10/28 02:28:32;;;;;;;;;;;;;;;8.70;100.00;99517.63;5065254;28;19921;-75
2023/10/28 02:30:57;;;;;;;;;;;;;;;8.70;100.00;99524.56;5073993;28;19939;-75
2023/10/28 02:33:22;;;;;;;;;;;;;;;8.68;100.00;99514.22;5080023;28;19920;-75
2023/10/28 02:35:48;;;;;;;;;;;;;;;8.67;100.00;99520.34;5077249;28;19925;-75
2023/10/28 02:38:13;;;;;;;;;;;;;;;8.66;100.00;99518.63;5081096;28;19925;-75
2023/10/28 02:40:44;;;;;;;;;;;;;;;8.64;100.00;99521.28;5070660;28;19931;-75
2023/10/28 02:43:09;;;;;;;;;;;;;;;8.62;100.00;99523.09;5079374;28;19924;-75
2023/10/28 02:45:35;;;;;;;;;;;;;;;8.59;100.00;99532.75;5083808;28;20389;-75
2023/10/28 02:48:00;;;;;;;;;;;;;;;8.55;100.00;99526.81;5079925;28;19920;-75
2023/10/28 02:50:25;;;;;;;;;;;;;;;8.56;100.00;99527.66;5081921;28;19966;-75
2023/10/28 02:52:51;;;;;;;;;;;;;;;8.54;100.00;99525.13;5066289;28;20398;-75
2023/10/28 02:55:17;;;;;;;;;;;;;;;8.53;100.00;99525.16;5081738;28;19966;-75
2023/10/28 02:57:42;;;;;;;;;;;;;;;8.53;100.00;99519.97;5085357;28;19930;-75
2023/10/28 03:00:08;;;;;;;;;;;;;;;8.55;100.00;99516.41;5083053;28;19920;-75
2023/10/28 03:02:34;;;;;;;;;;;;;;;8.56;100.00;99522.47;5078162;28;20323;-75
2023/10/28 03:04:59;;;;;;;;;;;;;;;8.57;100.00;99534.56;5081389;28;20018;-75
2023/10/28 03:07:25;;;;;;;;;;;;;;;8.56;100.00;99535.44;5081837;28;19920;-75
2023/10/28 03:09:50;;;;;;;;;;;;;;;8.55;100.00;99534.59;5079414;28;20364;-75
2023/10/28 03:12:15;;;;;;;;;;;;;;;8.49;100.00;99531.38;5077869;28;20004;-75
2023/10/28 03:14:41;;;;;;;;;;;;;;;8.46;100.00;99521.09;5067959;28;19975;-75
2023/10/28 03:17:06;;;;;;;;;;;;;;;8.41;100.00;99529.06;5079578;28;19920;-75
2023/10/28 03:19:31;;;;;;;;;;;;;;;8.35;100.00;99532.69;5082414;28;19967;-75
2023/10/28 03:21:56;;;;;;;;;;;;;;;8.29;100.00;99526.88;5083403;28;19958;-75
2023/10/28 03:24:23;;;;;;;;;;;;;;;8.21;100.00;99533.19;5081966;28;20395;-75
2023/10/28 03:26:48;;;;;;;;;;;;;;;8.14;100.00;99531.69;5081435;28;19928;-75
2023/10/28 03:29:13;;;;;;;;;;;;;;;8.09;100.00;99535.34;5067797;28;19921;-75
2023/10/28 03:31:39;;;;;;;;;;;;;;;8.03;100.00;99528.59;5086900;28;19920;-75
2023/10/28 03:34:05;;;;;;;;;;;;;;;8.01;100.00;99537.34;5081852;28;19946;-75
2023/10/28 03:36:30;;;;;;;;;;;;;;;8.05;100.00;99526.81;5082268;28;19920;-74
2023/10/28 03:38:56;;;;;;;;;;;;;;;8.08;100.00;99528.47;5076509;28;20332;-75
2023/10/28 03:41:22;;;;;;;;;;;;;;;8.10;100.00;99526.66;5083315;28;19920;-75
2023/10/28 03:43:47;;;;;;;;;;;;;;;8.13;100.00;99529.13;5086684;28;19978;-75
2023/10/28 03:46:18;;;;;;;;;;;;;;;8.15;100.00;99535.13;5083971;28;20014;-75
2023/10/28 03:48:43;;;;;;;;;;;;;;;8.16;100.00;99524.69;5079790;28;19920;-75
2023/10/28 03:51:08;;;;;;;;;;;;;;;8.18;100.00;99524.66;5083770;28;20390;-75
2023/10/28 03:53:33;;;;;;;;;;;;;;;8.20;100.00;99525.44;5084403;28;19966;-75
2023/10/28 03:55:59;;;;;;;;;;;;;;;8.20;100.00;99515.88;5085228;28;19920;-75
2023/10/28 03:58:24;;;;;;;;;;;;;;;8.21;100.00;99522.78;5077229;28;19921;-75
2023/10/28 04:00:53;;;;;;;;;;;;;;;8.24;100.00;99527.03;5080406;28;19927;-75
2023/10/28 04:03:18;;;;;;;;;;;;;;;8.24;100.00;99520.97;5078195;28;20340;-75
2023/10/28 04:05:43;;;;;;;;;;;;;;;8.26;100.00;99524.38;5082620;28;19926;-75
2023/10/28 04:08:08;;;;;;;;;;;;;;;8.28;100.00;99514.78;5079575;28;19928;-75
2023/10/28 04:10:33;;;;;;;;;;;;;;;8.29;100.00;99524.25;5077992;28;19924;-75
2023/10/28 04:13:00;;;;;;;;;;;;;;;8.29;100.00;99513.88;5078626;28;19982;-74
2023/10/28 04:15:25;;;;;;;;;;;;;;;8.30;100.00;99515.56;5069061;28;19966;-75
2023/10/28 04:17:50;;;;;;;;;;;;;;;8.32;100.00;99517.22;5083905;28;20376;-75
2023/10/28 04:20:15;;;;;;;;;;;;;;;8.33;100.00;99512.88;5082138;28;19928;-75
2023/10/28 04:22:41;;;;;;;;;;;;;;;8.35;100.00;99511.06;5083001;28;19920;-75
2023/10/28 04:25:06;;;;;;;;;;;;;;;8.35;100.00;99498.94;5082305;28;19927;-75
2023/10/28 04:27:32;;;;;;;;;;;;;;;8.36;100.00;99498.03;5078946;28;19963;-74
2023/10/28 04:29:57;;;;;;;;;;;;;;;8.37;100.00;99496.25;5082142;28;19928;-74
2023/10/28 04:32:23;;;;;;;;;;;;;;;8.39;100.00;99502.28;5080978;28;19921;-75
2023/10/28 04:34:49;;;;;;;;;;;;;;;8.39;100.00;99494.50;5082334;28;19931;-75
2023/10/28 04:37:14;;;;;;;;;;;;;;;8.41;100.00;99501.34;5084668;28;19921;-75
2023/10/28 04:39:40;;;;;;;;;;;;;;;8.42;100.00;99500.44;5081799;28;19943;-75
2023/10/28 04:42:07;;;;;;;;;;;;;;;8.43;100.00;99494.31;5073722;28;19922;-75
2023/10/28 04:44:32;;;;;;;;;;;;;;;8.42;100.00;99497.00;5079462;28;19921;-75
2023/10/28 04:46:57;;;;;;;;;;;;;;;8.44;100.00;99503.00;5077011;28;19991;-76
2023/10/28 04:49:23;;;;;;;;;;;;;;;8.43;100.00;99491.72;5081653;28;20026;-75
2023/10/28 04:51:48;;;;;;;;;;;;;;;8.43;100.00;99490.88;5081264;28;20286;-75
2023/10/28 04:54:13;;;;;;;;;;;;;;;8.44;100.00;99497.78;5085293;28;19916;-75
2023/10/28 04:56:38;;;;;;;;;;;;;;;8.43;100.00;99490.88;5079627;28;19924;-75
2023/10/28 04:59:04;;;;;;;;;;;;;;;8.43;100.00;99490.88;5076453;28;19927;-75
2023/10/28 05:01:29;;;;;;;;;;;;;;;8.42;100.00;99489.19;5084235;28;19920;-75
2023/10/28 05:03:54;;;;;;;;;;;;;;;8.42;100.00;99484.84;5076855;28;19917;-75
2023/10/28 05:06:20;;;;;;;;;;;;;;;8.43;100.00;99480.50;5085321;28;19946;-75
2023/10/28 05:08:45;;;;;;;;;;;;;;;8.44;100.00;99471.81;5074338;28;19924;-76
2023/10/28 05:11:15;;;;;;;;;;;;;;;8.44;100.00;99474.41;5079094;28;19920;-75
2023/10/28 05:13:41;;;;;;;;;;;;;;;8.44;100.00;99477.84;5068398;28;19942;-75
2023/10/28 05:16:06;;;;;;;;;;;;;;;8.44;100.00;99471.81;5079773;28;19920;-75
2023/10/28 05:18:31;;;;;;;;;;;;;;;8.44;100.00;99477.00;5075822;28;19916;-75
2023/10/28 05:20:57;;;;;;;;;;;;;;;8.41;100.00;99474.53;5078892;28;20010;-75
2023/10/28 05:23:22;;;;;;;;;;;;;;;8.37;100.00;99476.34;5075296;28;19925;-75
2023/10/28 05:25:47;;;;;;;;;;;;;;;8.37;100.00;99480.69;5082467;28;19920;-75
2023/10/28 05:28:13;;;;;;;;;;;;;;;8.34;100.00;99484.25;5077185;28;19924;-75
2023/10/28 05:30:38;;;;;;;;;;;;;;;8.35;100.00;99477.31;5085325;28;19932;-75
2023/10/28 05:33:03;;;;;;;;;;;;;;;8.34;100.00;99484.25;5078876;28;19951;-75
2023/10/28 05:35:28;;;;;;;;;;;;;;;8.33;100.00;99486.91;5077676;28;20435;-75
2023/10/28 05:37:53;;;;;;;;;;;;;;;8.32;100.00;99487.81;5079462;28;19975;-75
2023/10/28 05:40:18;;;;;;;;;;;;;;;8.32;100.00;99482.63;5080401;28;20424;-75
2023/10/28 05:42:44;;;;;;;;;;;;;;;8.30;100.00;99480.06;5069234;28;19927;-75
2023/10/28 05:45:10;;;;;;;;;;;;;;;8.29;100.00;99482.72;5079067;28;19916;-75
2023/10/28 05:47:35;;;;;;;;;;;;;;;8.30;100.00;99477.47;5077144;28;20283;-75
2023/10/28 05:50:05;;;;;;;;;;;;;;;8.32;100.00;99490.41;5084612;28;19924;-75
2023/10/28 05:52:30;;;;;;;;;;;;;;;8.29;100.00;99490.50;5084401;28;19955;-75
2023/10/28 05:54:55;;;;;;;;;;;;;;;8.24;100.00;99500.19;5067854;28;20009;-75
2023/10/28 05:57:21;;;;;;;;;;;;;;;8.20;100.00;99499.47;5077023;28;19966;-75
2023/10/28 05:59:46;;;;;;;;;;;;;;;8.17;100.00;99500.44;5079614;28;20023;-75
2023/10/28 06:02:11;;;;;;;;;;;;;;;8.20;100.00;99492.50;5075751;28;19927;-75
2023/10/28 06:04:37;;;;;;;;;;;;;;;8.25;100.00;99502.75;5087580;28;19974;-75
2023/10/28 06:07:02;;;;;;;;;;;;;;;8.30;100.00;99499.97;5080255;28;19925;-75
2023/10/28 06:09:27;;;;;;;;;;;;;;;8.33;100.00;99505.91;5085428;28;19993;-75
2023/10/28 06:11:52;;;;;;;;;;;;;;;8.34;100.00;99499.84;5073390;28;19921;-75
2023/10/28 06:14:18;;;;;;;;;;;;;;;8.38;100.00;99513.59;5074759;28;20323;-75
2023/10/28 06:16:44;;;;;;;;;;;;;;;8.40;100.00;99507.44;5088048;28;19920;-76
2023/10/28 06:19:10;;;;;;;;;;;;;;;8.44;100.00;99514.22;5075254;28;19931;-75
2023/10/28 06:21:35;;;;;;;;;;;;;;;8.47;100.00;99508.06;5083269;28;19924;-75
2023/10/28 06:24:00;;;;;;;;;;;;;;;8.52;100.00;99518.28;5079514;28;20423;-75
2023/10/28 06:26:26;;;;;;;;;;;;;;;8.53;100.00;99510.41;5085627;28;20010;-75
2023/10/28 06:28:51;;;;;;;;;;;;;;;8.57;100.00;99513.78;5076694;28;19924;-75
2023/10/28 06:31:16;;;;;;;;;;;;;;;8.58;100.00;99518.91;5085030;28;20285;-76
2023/10/28 06:33:41;;;;;;;;;;;;;;;8.62;100.00;99517.88;5084175;28;19957;-76
2023/10/28 06:36:08;;;;;;;;;;;;;;;8.65;100.00;99517.78;5084081;28;20006;-75
2023/10/28 06:38:33;;;;;;;;;;;;;;;8.66;100.00;99516.91;5081009;28;19927;-76
2023/10/28 06:40:59;;;;;;;;;;;;;;;8.68;100.00;99512.47;5080692;28;19928;-76
2023/10/28 06:43:24;;;;;;;;;;;;;;;8.70;100.00;99519.34;5073479;28;19920;-76
2023/10/28 06:45:49;;;;;;;;;;;;;;;8.69;100.00;99510.72;5070907;28;19927;-76
2023/10/28 06:48:15;;;;;;;;;;;;;;;8.70;100.00;99520.22;5080799;28;19920;-76
2023/10/28 06:50:40;;;;;;;;;;;;;;;8.68;100.00;99511.63;5085969;28;19920;-76
2023/10/28 06:53:06;;;;;;;;;;;;;;;8.68;100.00;99515.06;5076051;28;19920;-76
2023/10/28 06:55:31;;;;;;;;;;;;;;;8.73;100.00;99521.84;5086046;28;19950;-76
2023/10/28 06:57:56;;;;;;;;;;;;;;;8.75;100.00;99517.44;5078504;28;19927;-76
2023/10/28 07:00:27;;;;;;;;;;;;;;;8.75;100.00;99523.47;5084010;28;20291;-76
2023/10/28 07:02:52;;;;;;;;;;;;;;;8.77;100.00;99520.84;5078976;28;20395;-76
2023/10/28 07:05:17;;;;;;;;;;;;;;;8.82;100.00;99513.72;5084864;28;19956;-76
2023/10/28 07:07:44;;;;;;;;;;;;;;;8.83;100.00;99524.06;5068997;28;20361;-75
2023/10/28 07:10:10;;;;;;;;;;;;;;;8.88;100.00;99524.72;5081938;28;19927;-75
2023/10/28 07:12:35;;;;;;;;;;;;;;;8.95;100.00;99527.09;5077570;28;19936;-76
2023/10/28 07:15:00;;;;;;;;;;;;;;;8.98;100.00;99522.63;5078387;28;20359;-76
2023/10/28 07:17:26;;;;;;;;;;;;;;;9.02;100.00;99524.19;5083746;28;20035;-76
2023/10/28 07:19:54;;;;;;;;;;;;;;;9.04;100.00;99530.19;5080838;28;19958;-76
2023/10/28 07:22:25;;;;;;;;;;;;;;;9.03;100.00;99525.06;5079368;28;19931;-76
2023/10/28 07:24:50;;;;;;;;;;;;;;;8.99;100.00;99526.94;5085343;28;19920;-76
2023/10/28 07:27:16;;;;;;;;;;;;;;;8.99;100.00;99531.25;5083832;28;19995;-75
2023/10/28 07:29:41;;;;;;;;;;;;;;;9.00;100.00;99528.63;5088775;28;20379;-75
2023/10/28 07:32:09;;;;;;;;;;;;;;;9.02;100.00;99532.00;5078683;28;19935;-76
2023/10/28 07:34:34;;;;;;;;;;;;;;;9.09;100.00;99537.81;5083789;28;19916;-75
2023/10/28 07:37:00;;;;;;;;;;;;;;;9.13;100.00;99545.44;5083734;28;19950;-76
2023/10/28 07:39:25;;;;;;;;;;;;;;;9.17;100.00;99530.56;5086805;28;20282;-75
2023/10/28 07:41:50;;;;;;;;;;;;;;;9.25;100.00;99543.28;5066960;28;19921;-75
2023/10/28 07:44:15;;;;;;;;;;;;;;;9.32;100.00;99539.56;5087753;28;19999;-76
2023/10/28 07:46:40;;;;;;;;;;;;;;;9.41;100.00;99544.38;5081772;28;19920;-76
2023/10/28 07:49:06;;;;;;;;;;;;;;;9.47;100.00;99543.28;5074319;28;19956;-76
2023/10/28 07:51:31;;;;;;;;;;;;;;;9.52;100.00;99546.56;5081606;28;20015;-76
2023/10/28 07:53:56;;;;;;;;;;;;;;;9.55;100.00;99556.84;5086084;28;19927;-75
2023/10/28 07:56:21;;;;;;;;;;;;;;;9.60;100.00;99549.69;5074532;28;20061;-75
2023/10/28 07:58:47;;;;;;;;;;;;;;;9.60;100.00;99552.28;5073479;28;20391;-75
2023/10/28 08:01:14;;;;;;;;;;;;;;;9.66;100.00;99562.47;5085367;28;19927;-76
2023/10/28 08:03:40;;;;;;;;;;;;;;;9.68;100.00;99558.06;5079525;28;19920;-75
2023/10/28 08:06:08;;;;;;;;;;;;;;;9.74;100.00;99565.59;5084686;28;19920;-75
2023/10/28 08:08:33;;;;;;;;;;;;;;;9.83;100.00;99562.63;5082201;28;20372;-76
2023/10/28 08:11:13;;;;;;;;;;;;;;;9.89;100.00;99563.28;5084563;28;19932;-75
2023/10/28 08:13:39;;;;;;;;;;;;;;;9.93;100.00;99575.25;5084542;28;19916;-75
2023/10/28 08:16:04;;;;;;;;;;;;;;;9.96;100.00;99577.75;5084791;28;19974;-75
2023/10/28 08:18:33;;;;;;;;;;;;;;;10.01;100.00;99571.44;5071370;28;19920;-75
2023/10/28 08:20:59;;;;;;;;;;;;;;;10.06;100.00;99584.25;5078175;28;19974;-76
2023/10/28 08:23:25;;;;;;;;;;;;;;;10.07;100.00;99581.63;5084268;28;19916;-75
2023/10/28 08:25:50;;;;;;;;;;;;;;;10.13;100.00;99579.66;5076733;28;19990;-76
2023/10/28 08:28:16;;;;;;;;;;;;;;;10.09;100.00;99579.78;5077690;28;19924;-75
2023/10/28 08:30:46;;;;;;;;;;;;;;;10.04;100.00;99571.31;5078596;28;22578;-75
2023/10/28 08:33:11;;;;;;;;;;;;;;;10.08;100.00;99585.06;5083726;28;20283;-75
2023/10/28 08:35:36;;;;;;;;;;;;;;;10.12;100.00;99584.00;5075959;28;19931;-75
2023/10/28 08:38:05;;;;;;;;;;;;;;;10.22;100.00;99580.13;5084430;28;19919;-75
2023/10/28 08:40:30;;;;;;;;;;;;;;;10.32;100.00;99585.81;5082825;28;20018;-75
2023/10/28 08:42:56;;;;;;;;;;;;;;;10.37;100.00;99586.47;5075321;28;20339;-75
2023/10/28 08:45:23;;;;;;;;;;;;;;;10.42;100.00;99594.09;5084574;28;19920;-75
2023/10/28 08:47:50;;;;;;;;;;;;;;;10.43;100.00;99588.81;5080990;28;19924;-76
2023/10/28 08:50:17;;;;;;;;;;;;;;;10.40;100.00;99591.56;5078450;28;19974;-75
2023/10/28 08:52:45;;;;;;;;;;;;;;;10.38;100.00;99592.53;5074328;28;19920;-75
2023/10/28 08:55:11;;;;;;;;;;;;;;;10.37;100.00;99598.66;5078986;28;19972;-76
2023/10/28 08:57:40;;;;;;;;;;;;;;;10.38;100.00;99601.19;5084606;28;19927;-76
2023/10/28 09:00:14;;;;;;;;;;;;;;;10.43;100.00;99599.25;5082998;28;20372;-75
2023/10/28 09:02:41;;;;;;;;;;;;;;;10.46;100.00;99598.25;5083892;28;19923;-75
2023/10/28 09:05:07;;;;;;;;;;;;;;;10.45;100.00;99597.41;5082876;28;19921;-75
2023/10/28 09:07:32;;;;;;;;;;;;;;;10.49;100.00;99604.16;5083892;28;19916;-75
2023/10/28 09:09:58;;;;;;;;;;;;;;;10.52;100.00;99604.03;5084512;28;19962;-75
2023/10/28 09:12:24;;;;;;;;;;;;;;;10.58;100.00;99599.50;5082471;28;19921;-76
2023/10/28 09:14:49;;;;;;;;;;;;;;;10.77;100.00;99606.44;5087896;28;19928;-75
2023/10/28 09:17:18;;;;;;;;;;;;;;;11.04;100.00;99610.50;5081060;28;19925;-76
2023/10/28 09:19:44;;;;;;;;;;;;;;;11.22;100.00;99612.28;5080810;28;19966;-76
2023/10/28 09:22:09;;;;;;;;;;;;;;;11.31;100.00;99616.22;5080418;28;19924;-75
2023/10/28 09:24:34;;;;;;;;;;;;;;;11.34;100.00;99618.69;5088799;28;19928;-75
2023/10/28 09:27:00;;;;;;;;;;;;;;;11.37;100.00;99608.94;5080122;28;20011;-76
2023/10/28 09:29:30;;;;;;;;;;;;;;;11.38;100.00;99608.06;5088242;28;20412;-76
2023/10/28 09:32:08;;;;;;;;;;;;;;;11.45;100.00;99606.84;5075033;28;19920;-75
2023/10/28 09:34:38;;;;;;;;;;;;;;;11.48;100.00;99608.47;5080724;28;19976;-75
2023/10/28 09:37:04;;;;;;;;;;;;;;;11.39;100.00;99609.75;5082579;28;19921;-75
2023/10/28 09:39:30;;;;;;;;;;;;;;;11.35;100.00;99609.97;5062830;28;19929;-75
2023/10/28 09:41:56;;;;;;;;;;;;;;;11.30;100.00;99612.78;5068451;28;19978;-75
2023/10/28 09:44:23;;;;;;;;;;;;;;;11.27;100.00;99612.91;5080727;28;20419;-76
2023/10/28 09:46:50;;;;;;;;;;;;;;;11.31;100.00;99613.59;5079851;28;19921;-76
2023/10/28 09:49:17;;;;;;;;;;;;;;;11.32;100.00;99612.72;5073675;28;19927;-75
2023/10/28 09:51:45;;;;;;;;;;;;;;;11.38;100.00;99610.66;5086270;28;19920;-75
2023/10/28 09:54:18;;;;;;;;;;;;;;;11.37;100.00;99606.34;5082464;28;19917;-75
2023/10/28 09:56:46;;;;;;;;;;;;;;;11.30;100.00;99607.56;5076093;28;19920;-75
2023/10/28 09:59:15;;;;;;;;;;;;;;;11.29;100.00;99605.03;5079109;28;19920;-75
2023/10/28 10:01:46;;;;;;;;;;;;;;;11.22;100.00;99601.84;5083108;28;19916;-75
2023/10/28 10:04:16;;;;;;;;;;;;;;;11.17;100.00;99602.03;5076041;28;19921;-76
2023/10/28 10:06:42;;;;;;;;;;;;;;;11.20;100.00;99601.06;5076555;28;20325;-76
2023/10/28 10:09:12;;;;;;;;;;;;;;;11.24;100.00;99600.84;5076251;28;19921;-77
2023/10/28 10:11:40;;;;;;;;;;;;;;;11.29;100.00;99598.03;5063538;28;20051;-76
2023/10/28 10:14:09;;;;;;;;;;;;;;;11.38;100.00;99607.19;5076515;28;19921;-76
2023/10/28 10:16:51;;;;;;;;;;;;;;;11.49;100.00;99602.34;5085959;28;19921;-76
2023/10/28 10:19:20;;;;;;;;;;;;;;;11.61;100.00;99614.81;5082981;28;19982;-76
2023/10/28 10:21:54;;;;;;;;;;;;;;;11.77;100.00;99616.66;5071339;28;19920;-76
2023/10/28 10:24:20;;;;;;;;;;;;;;;11.83;100.00;99611.16;5076624;28;19931;-75
2023/10/28 10:26:55;;;;;;;;;;;;;;;11.88;100.00;99609.22;5085180;28;19959;-75
2023/10/28 10:29:20;;;;;;;;;;;;;;;11.90;100.00;99608.22;5081386;28;19924;-76
2023/10/28 10:31:49;;;;;;;;;;;;;;;11.93;100.00;99608.09;5071157;28;20378;-75
2023/10/28 10:34:29;;;;;;;;;;;;;;;12.01;100.00;99599.88;5077759;28;19938;-76
2023/10/28 10:36:55;;;;;;;;;;;;;;;12.10;100.00;99609.03;5083812;28;19932;-75
2023/10/28 10:39:20;;;;;;;;;;;;;;;12.10;100.00;99601.19;5082829;28;19924;-76
2023/10/28 10:41:49;;;;;;;;;;;;;;;12.09;100.00;99602.09;5076569;28;19964;-76
2023/10/28 10:44:20;;;;;;;;;;;;;;;12.07;100.00;99611.78;5089295;28;19948;-76
2023/10/28 10:46:46;;;;;;;;;;;;;;;12.04;100.00;99609.31;5062832;28;19921;-76
2023/10/28 10:49:11;;;;;;;;;;;;;;;12.08;100.00;99605.63;5087458;28;19973;-75
2023/10/28 10:51:38;;;;;;;;;;;;;;;12.16;100.00;99603.47;5075848;28;20020;-76
2023/10/28 10:54:04;;;;;;;;;;;;;;;12.10;100.00;99606.41;5087207;28;19945;-76
2023/10/28 10:56:29;;;;;;;;;;;;;;;11.95;100.00;99595.78;5080437;28;19924;-76
2023/10/28 10:58:55;;;;;;;;;;;;;;;11.84;100.00;99603.31;5084809;28;19970;-75
2023/10/28 11:01:20;;;;;;;;;;;;;;;11.77;100.00;99595.78;5077779;28;19999;-76
2023/10/28 11:03:45;;;;;;;;;;;;;;;11.71;100.00;99604.78;5083429;28;19920;-76
2023/10/28 11:06:12;;;;;;;;;;;;;;;11.68;100.00;99600.53;5085835;28;19965;-76
2023/10/28 11:08:37;;;;;;;;;;;;;;;11.71;100.00;99586.50;5083761;28;20279;-75
2023/10/28 11:11:03;;;;;;;;;;;;;;;11.82;100.00;99584.22;5068417;28;19921;-76
2023/10/28 11:13:29;;;;;;;;;;;;;;;11.95;100.00;99585.31;5081100;28;19921;-76
2023/10/28 11:15:54;;;;;;;;;;;;;;;12.05;100.00;99582.28;5085814;28;19938;-76
2023/10/28 11:18:20;;;;;;;;;;;;;;;12.10;100.00;99583.75;5076411;28;19928;-76
2023/10/28 11:20:47;;;;;;;;;;;;;;;12.19;100.00;99583.25;5080495;28;19942;-77
2023/10/28 11:23:12;;;;;;;;;;;;;;;12.35;100.00;99592.94;5087400;28;19920;-77
2023/10/28 11:25:37;;;;;;;;;;;;;;;12.49;100.00;99589.63;5079394;28;19920;-77
2023/10/28 11:28:10;;;;;;;;;;;;;;;12.66;100.00;99581.78;5085977;28;20371;-76
2023/10/28 11:30:37;;;;;;;;;;;;;;;12.77;100.00;99583.81;5085001;28;19916;-76
2023/10/28 11:33:09;;;;;;;;;;;;;;;12.79;100.00;99595.06;5080177;28;19927;-77
2023/10/28 11:35:34;;;;;;;;;;;;;;;12.71;100.00;99586.75;5081870;28;19916;-76
2023/10/28 11:38:02;;;;;;;;;;;;;;;12.76;100.00;99587.38;5084646;28;19926;-77
2023/10/28 11:40:27;;;;;;;;;;;;;;;13.06;100.00;99590.97;5085824;28;20386;-77
2023/10/28 11:42:53;;;;;;;;;;;;;;;13.36;100.00;99587.66;5082134;28;20391;-77
2023/10/28 11:45:18;;;;;;;;;;;;;;;13.37;100.00;99599.81;5085442;28;19920;-76
2023/10/28 11:47:43;;;;;;;;;;;;;;;13.25;100.00;99593.47;5077902;28;20300;-76
2023/10/28 11:50:09;;;;;;;;;;;;;;;13.02;100.00;99599.09;5084130;28;19924;-77
2023/10/28 11:52:34;;;;;;;;;;;;;;;12.87;100.00;99601.56;5085122;28;19916;-77
2023/10/28 11:55:05;;;;;;;;;;;;;;;12.99;100.00;99594.00;5084101;28;19950;-76
2023/10/28 11:57:30;;;;;;;;;;;;;;;13.18;100.00;99599.94;5080695;28;19969;-77
2023/10/28 11:59:55;;;;;;;;;;;;;;;13.46;100.00;99594.06;5084089;28;20314;-77
2023/10/28 12:02:20;;;;;;;;;;;;;;;13.63;100.00;99598.38;5077971;28;19920;-77
2023/10/28 12:04:45;;;;;;;;;;;;;;;13.52;100.00;99603.38;5077364;28;19920;-77
2023/10/28 12:07:11;;;;;;;;;;;;;;;13.34;100.00;99606.06;5076244;28;19924;-77
2023/10/28 12:09:37;;;;;;;;;;;;;;;13.21;100.00;99607.63;5087111;28;20379;-77
2023/10/28 12:12:03;;;;;;;;;;;;;;;13.27;100.00;99612.53;5068896;28;20326;-77
2023/10/28 12:14:28;;;;;;;;;;;;;;;13.43;100.00;99609.94;5084257;28;19956;-77
2023/10/28 12:16:53;;;;;;;;;;;;;;;13.51;100.00;99613.00;5078690;28;20410;-77
2023/10/28 12:19:19;;;;;;;;;;;;;;;13.66;100.00;99606.06;5089217;28;20002;-77
2023/10/28 12:21:44;;;;;;;;;;;;;;;13.98;100.00;99608.63;5081015;28;19920;-77
2023/10/28 12:24:11;;;;;;;;;;;;;;;14.23;100.00;99605.47;5088549;28;19919;-77
2023/10/28 12:26:37;;;;;;;;;;;;;;;14.35;100.00;99614.38;5070061;28;19927;-77
2023/10/28 12:29:03;;;;;;;;;;;;;;;14.37;100.00;99602.03;5082086;28;19920;-77
2023/10/28 12:31:28;;;;;;;;;;;;;;;14.23;100.00;99611.53;5086894;28;19920;-77
2023/10/28 12:33:53;;;;;;;;;;;;;;;14.11;100.00;99612.25;5077925;28;20283;-77
2023/10/28 12:36:20;;;;;;;;;;;;;;;14.00;100.00;99607.63;5073180;28;20303;-77